sensor_id;sensor_type;location;lat;lon;timestamp;pressure;altitude;pressure_sealevel;temperature
68510;BMP180;55512;50.102;19.958;2023-02-13T00:02:07;100622.80;;;1.88
68510;BMP180;55512;50.102;19.958;2023-02-13T00:04:33;100623.40;;;1.90
68510;BMP180;55512;50.102;19.958;2023-02-13T00:06:59;100620.00;;;1.80
68510;BMP180;55512;50.102;19.958;2023-02-13T00:09:24;100613.40;;;1.80
68510;BMP180;55512;50.102;19.958;2023-02-13T00:11:50;100606.60;;;1.80
68510;BMP180;55512;50.102;19.958;2023-02-13T00:14:16;100601.40;;;1.80
68510;BMP180;55512;50.102;19.958;2023-02-13T00:16:41;100601.60;;;1.80
68510;BMP180;55512;50.102;19.958;2023-02-13T00:19:07;100599.40;;;1.80
68510;BMP180;55512;50.102;19.958;2023-02-13T00:21:32;100598.00;;;1.88
68510;BMP180;55512;50.102;19.958;2023-02-13T00:23:58;100603.60;;;1.90
68510;BMP180;55512;50.102;19.958;2023-02-13T00:26:23;100602.40;;;1.90
68510;BMP180;55512;50.102;19.958;2023-02-13T00:28:49;100609.40;;;1.90
68510;BMP180;55512;50.102;19.958;2023-02-13T00:31:18;100606.00;;;1.90
68510;BMP180;55512;50.102;19.958;2023-02-13T00:33:44;100612.60;;;1.90
68510;BMP180;55512;50.102;19.958;2023-02-13T00:36:13;100611.40;;;1.90
68510;BMP180;55512;50.102;19.958;2023-02-13T00:38:41;100610.20;;;1.92
68510;BMP180;55512;50.102;19.958;2023-02-13T00:41:07;100601.80;;;1.90
68510;BMP180;55512;50.102;19.958;2023-02-13T00:43:33;100601.40;;;1.90
68510;BMP180;55512;50.102;19.958;2023-02-13T00:46:00;100607.00;;;1.90
68510;BMP180;55512;50.102;19.958;2023-02-13T00:48:27;100603.60;;;2.00
68510;BMP180;55512;50.102;19.958;2023-02-13T00:50:54;100600.20;;;2.00
68510;BMP180;55512;50.102;19.958;2023-02-13T00:53:22;100596.20;;;2.00
68510;BMP180;55512;50.102;19.958;2023-02-13T00:55:48;100593.20;;;2.00
68510;BMP180;55512;50.102;19.958;2023-02-13T00:58:15;100590.80;;;2.00
68510;BMP180;55512;50.102;19.958;2023-02-13T01:00:41;100586.20;;;2.00
68510;BMP180;55512;50.102;19.958;2023-02-13T01:03:08;100577.80;;;2.00
68510;BMP180;55512;50.102;19.958;2023-02-13T01:05:34;100584.00;;;2.00
68510;BMP180;55512;50.102;19.958;2023-02-13T01:07:59;100574.80;;;2.00
68510;BMP180;55512;50.102;19.958;2023-02-13T01:10:25;100570.40;;;1.96
68510;BMP180;55512;50.102;19.958;2023-02-13T01:12:51;100571.60;;;1.94
68510;BMP180;55512;50.102;19.958;2023-02-13T01:15:17;100558.40;;;1.90
68510;BMP180;55512;50.102;19.958;2023-02-13T01:17:42;100556.00;;;1.90
68510;BMP180;55512;50.102;19.958;2023-02-13T01:20:10;100554.80;;;1.98
68510;BMP180;55512;50.102;19.958;2023-02-13T01:22:37;100549.00;;;1.94
68510;BMP180;55512;50.102;19.958;2023-02-13T01:25:02;100546.00;;;2.00
68510;BMP180;55512;50.102;19.958;2023-02-13T01:27:28;100546.20;;;2.00
68510;BMP180;55512;50.102;19.958;2023-02-13T01:29:54;100549.20;;;2.00
68510;BMP180;55512;50.102;19.958;2023-02-13T01:32:20;100546.00;;;2.00
68510;BMP180;55512;50.102;19.958;2023-02-13T01:34:45;100542.00;;;2.00
68510;BMP180;55512;50.102;19.958;2023-02-13T01:37:11;100551.20;;;2.00
68510;BMP180;55512;50.102;19.958;2023-02-13T01:39:37;100544.80;;;2.00
68510;BMP180;55512;50.102;19.958;2023-02-13T01:42:03;100539.80;;;2.00
68510;BMP180;55512;50.102;19.958;2023-02-13T01:45:03;100543.80;;;2.00
68510;BMP180;55512;50.102;19.958;2023-02-13T01:47:43;100533.00;;;2.00
68510;BMP180;55512;50.102;19.958;2023-02-13T01:52:48;100530.80;;;2.00
68510;BMP180;55512;50.102;19.958;2023-02-13T01:55:15;100529.20;;;2.10
68510;BMP180;55512;50.102;19.958;2023-02-13T01:57:45;100519.40;;;2.10
68510;BMP180;55512;50.102;19.958;2023-02-13T02:00:15;100521.40;;;2.14
68510;BMP180;55512;50.102;19.958;2023-02-13T02:02:49;100516.80;;;2.20
68510;BMP180;55512;50.102;19.958;2023-02-13T02:05:19;100515.80;;;2.20
68510;BMP180;55512;50.102;19.958;2023-02-13T02:07:46;100508.80;;;2.20
68510;BMP180;55512;50.102;19.958;2023-02-13T02:10:17;100511.60;;;2.30
68510;BMP180;55512;50.102;19.958;2023-02-13T02:15:22;100511.40;;;2.30
68510;BMP180;55512;50.102;19.958;2023-02-13T02:17:47;100509.80;;;2.30
68510;BMP180;55512;50.102;19.958;2023-02-13T02:23:27;100499.60;;;2.20
68510;BMP180;55512;50.102;19.958;2023-02-13T02:28:40;100487.40;;;2.20
68510;BMP180;55512;50.102;19.958;2023-02-13T02:31:44;100490.80;;;2.20
68510;BMP180;55512;50.102;19.958;2023-02-13T02:45:55;100511.00;;;2.22
68510;BMP180;55512;50.102;19.958;2023-02-13T02:48:56;100511.80;;;2.30
68510;BMP180;55512;50.102;19.958;2023-02-13T02:52:22;100509.20;;;2.30
68510;BMP180;55512;50.102;19.958;2023-02-13T02:55:06;100511.20;;;2.30
68510;BMP180;55512;50.102;19.958;2023-02-13T02:57:42;100507.60;;;2.30
68510;BMP180;55512;50.102;19.958;2023-02-13T03:00:30;100503.40;;;2.30
68510;BMP180;55512;50.102;19.958;2023-02-13T03:03:24;100506.00;;;2.40
68510;BMP180;55512;50.102;19.958;2023-02-13T03:06:18;100497.00;;;2.40
68510;BMP180;55512;50.102;19.958;2023-02-13T03:08:56;100491.00;;;2.50
68510;BMP180;55512;50.102;19.958;2023-02-13T03:11:42;100495.80;;;2.50
68510;BMP180;55512;50.102;19.958;2023-02-13T03:14:27;100495.40;;;2.50
68510;BMP180;55512;50.102;19.958;2023-02-13T03:16:55;100496.80;;;2.50
68510;BMP180;55512;50.102;19.958;2023-02-13T03:20:00;100496.40;;;2.50
68510;BMP180;55512;50.102;19.958;2023-02-13T03:28:57;100500.00;;;2.52
68510;BMP180;55512;50.102;19.958;2023-02-13T03:32:09;100505.60;;;2.60
68510;BMP180;55512;50.102;19.958;2023-02-13T03:34:47;100512.80;;;2.60
68510;BMP180;55512;50.102;19.958;2023-02-13T03:37:39;100513.00;;;2.60
68510;BMP180;55512;50.102;19.958;2023-02-13T03:40:41;100512.00;;;2.64
68510;BMP180;55512;50.102;19.958;2023-02-13T03:43:37;100510.40;;;2.60
68510;BMP180;55512;50.102;19.958;2023-02-13T03:46:07;100508.80;;;2.64
68510;BMP180;55512;50.102;19.958;2023-02-13T03:48:38;100509.80;;;2.64
68510;BMP180;55512;50.102;19.958;2023-02-13T03:51:37;100509.60;;;2.66
68510;BMP180;55512;50.102;19.958;2023-02-13T03:54:32;100516.20;;;2.70
68510;BMP180;55512;50.102;19.958;2023-02-13T03:57:21;100519.40;;;2.70
68510;BMP180;55512;50.102;19.958;2023-02-13T04:00:12;100525.00;;;2.70
68510;BMP180;55512;50.102;19.958;2023-02-13T04:03:02;100526.00;;;2.70
68510;BMP180;55512;50.102;19.958;2023-02-13T04:05:38;100524.60;;;2.70
68510;BMP180;55512;50.102;19.958;2023-02-13T04:08:05;100523.60;;;2.70
68510;BMP180;55512;50.102;19.958;2023-02-13T04:10:36;100528.20;;;2.70
68510;BMP180;55512;50.102;19.958;2023-02-13T04:13:16;100521.20;;;2.70
68510;BMP180;55512;50.102;19.958;2023-02-13T04:15:55;100520.60;;;2.80
68510;BMP180;55512;50.102;19.958;2023-02-13T04:18:26;100519.00;;;2.80
68510;BMP180;55512;50.102;19.958;2023-02-13T04:20:52;100515.40;;;2.82
68510;BMP180;55512;50.102;19.958;2023-02-13T04:23:18;100514.40;;;2.82
68510;BMP180;55512;50.102;19.958;2023-02-13T04:25:50;100513.20;;;2.84
68510;BMP180;55512;50.102;19.958;2023-02-13T04:28:16;100517.00;;;2.84
68510;BMP180;55512;50.102;19.958;2023-02-13T04:30:42;100514.00;;;2.80
68510;BMP180;55512;50.102;19.958;2023-02-13T04:33:07;100511.00;;;2.84
68510;BMP180;55512;50.102;19.958;2023-02-13T04:35:33;100511.20;;;2.88
68510;BMP180;55512;50.102;19.958;2023-02-13T04:38:00;100514.00;;;2.90
68510;BMP180;55512;50.102;19.958;2023-02-13T04:40:26;100509.20;;;2.90
68510;BMP180;55512;50.102;19.958;2023-02-13T04:42:51;100512.40;;;2.90
68510;BMP180;55512;50.102;19.958;2023-02-13T04:45:16;100512.60;;;2.90
68510;BMP180;55512;50.102;19.958;2023-02-13T04:47:48;100512.40;;;2.90
68510;BMP180;55512;50.102;19.958;2023-02-13T04:50:14;100511.60;;;2.86
68510;BMP180;55512;50.102;19.958;2023-02-13T04:52:39;100513.80;;;2.86
68510;BMP180;55512;50.102;19.958;2023-02-13T04:55:05;100510.40;;;2.90
68510;BMP180;55512;50.102;19.958;2023-02-13T04:57:31;100509.40;;;2.90
68510;BMP180;55512;50.102;19.958;2023-02-13T04:59:56;100510.20;;;2.84
68510;BMP180;55512;50.102;19.958;2023-02-13T05:02:22;100514.80;;;2.88
68510;BMP180;55512;50.102;19.958;2023-02-13T05:04:47;100518.00;;;2.84
68510;BMP180;55512;50.102;19.958;2023-02-13T05:07:12;100520.00;;;2.90
68510;BMP180;55512;50.102;19.958;2023-02-13T05:09:38;100526.40;;;2.90
68510;BMP180;55512;50.102;19.958;2023-02-13T05:12:03;100517.40;;;2.90
68510;BMP180;55512;50.102;19.958;2023-02-13T05:14:29;100513.00;;;2.90
68510;BMP180;55512;50.102;19.958;2023-02-13T05:16:54;100515.40;;;2.90
68510;BMP180;55512;50.102;19.958;2023-02-13T05:19:20;100514.00;;;2.90
68510;BMP180;55512;50.102;19.958;2023-02-13T05:21:45;100512.40;;;2.90
68510;BMP180;55512;50.102;19.958;2023-02-13T05:24:29;100519.20;;;2.90
68510;BMP180;55512;50.102;19.958;2023-02-13T05:26:55;100512.20;;;3.00
68510;BMP180;55512;50.102;19.958;2023-02-13T05:29:20;100507.60;;;3.00
68510;BMP180;55512;50.102;19.958;2023-02-13T05:31:52;100512.40;;;3.00
68510;BMP180;55512;50.102;19.958;2023-02-13T05:34:20;100510.20;;;3.00
68510;BMP180;55512;50.102;19.958;2023-02-13T05:36:46;100511.20;;;3.00
68510;BMP180;55512;50.102;19.958;2023-02-13T05:39:12;100508.20;;;3.00
68510;BMP180;55512;50.102;19.958;2023-02-13T05:41:39;100514.20;;;3.02
68510;BMP180;55512;50.102;19.958;2023-02-13T05:44:05;100514.20;;;3.06
68510;BMP180;55512;50.102;19.958;2023-02-13T05:46:32;100518.00;;;3.08
68510;BMP180;55512;50.102;19.958;2023-02-13T05:48:57;100518.60;;;3.10
68510;BMP180;55512;50.102;19.958;2023-02-13T05:51:23;100517.00;;;3.10
68510;BMP180;55512;50.102;19.958;2023-02-13T05:53:48;100521.60;;;3.10
68510;BMP180;55512;50.102;19.958;2023-02-13T05:56:14;100524.80;;;3.10
68510;BMP180;55512;50.102;19.958;2023-02-13T05:58:39;100530.00;;;3.10
68510;BMP180;55512;50.102;19.958;2023-02-13T06:01:05;100532.00;;;3.10
68510;BMP180;55512;50.102;19.958;2023-02-13T06:03:31;100534.20;;;3.10
68510;BMP180;55512;50.102;19.958;2023-02-13T06:05:58;100531.60;;;3.10
68510;BMP180;55512;50.102;19.958;2023-02-13T06:08:24;100524.20;;;3.10
68510;BMP180;55512;50.102;19.958;2023-02-13T06:10:51;100528.20;;;3.20
68510;BMP180;55512;50.102;19.958;2023-02-13T06:13:17;100531.40;;;3.20
68510;BMP180;55512;50.102;19.958;2023-02-13T06:15:43;100529.00;;;3.20
68510;BMP180;55512;50.102;19.958;2023-02-13T06:18:10;100528.40;;;3.20
68510;BMP180;55512;50.102;19.958;2023-02-13T06:20:36;100528.00;;;3.20
68510;BMP180;55512;50.102;19.958;2023-02-13T06:23:03;100537.00;;;3.20
68510;BMP180;55512;50.102;19.958;2023-02-13T06:25:29;100540.60;;;3.20
68510;BMP180;55512;50.102;19.958;2023-02-13T06:27:54;100542.00;;;3.20
68510;BMP180;55512;50.102;19.958;2023-02-13T06:30:21;100541.80;;;3.20
68510;BMP180;55512;50.102;19.958;2023-02-13T06:32:47;100544.20;;;3.20
68510;BMP180;55512;50.102;19.958;2023-02-13T06:35:14;100543.40;;;3.20
68510;BMP180;55512;50.102;19.958;2023-02-13T06:37:41;100544.80;;;3.20
68510;BMP180;55512;50.102;19.958;2023-02-13T06:40:12;100550.20;;;3.20
68510;BMP180;55512;50.102;19.958;2023-02-13T06:42:38;100549.60;;;3.20
68510;BMP180;55512;50.102;19.958;2023-02-13T06:45:04;100550.20;;;3.20
68510;BMP180;55512;50.102;19.958;2023-02-13T06:47:30;100550.80;;;3.22
68510;BMP180;55512;50.102;19.958;2023-02-13T06:49:55;100558.00;;;3.28
68510;BMP180;55512;50.102;19.958;2023-02-13T06:52:21;100556.60;;;3.30
68510;BMP180;55512;50.102;19.958;2023-02-13T06:54:46;100552.20;;;3.30
68510;BMP180;55512;50.102;19.958;2023-02-13T06:57:12;100552.00;;;3.30
68510;BMP180;55512;50.102;19.958;2023-02-13T06:59:37;100552.60;;;3.30
68510;BMP180;55512;50.102;19.958;2023-02-13T07:02:03;100555.20;;;3.30
68510;BMP180;55512;50.102;19.958;2023-02-13T07:04:28;100554.60;;;3.30
68510;BMP180;55512;50.102;19.958;2023-02-13T07:06:55;100556.80;;;3.30
68510;BMP180;55512;50.102;19.958;2023-02-13T07:09:22;100553.00;;;3.30
68510;BMP180;55512;50.102;19.958;2023-02-13T07:11:49;100562.40;;;3.30
68510;BMP180;55512;50.102;19.958;2023-02-13T07:14:14;100563.20;;;3.38
68510;BMP180;55512;50.102;19.958;2023-02-13T07:16:40;100562.80;;;3.36
68510;BMP180;55512;50.102;19.958;2023-02-13T07:19:05;100563.80;;;3.40
68510;BMP180;55512;50.102;19.958;2023-02-13T07:21:31;100562.80;;;3.40
68510;BMP180;55512;50.102;19.958;2023-02-13T07:23:56;100565.00;;;3.30
68510;BMP180;55512;50.102;19.958;2023-02-13T07:26:22;100559.60;;;3.30
68510;BMP180;55512;50.102;19.958;2023-02-13T07:28:47;100563.60;;;3.30
68510;BMP180;55512;50.102;19.958;2023-02-13T07:31:13;100562.00;;;3.32
68510;BMP180;55512;50.102;19.958;2023-02-13T07:33:38;100553.00;;;3.32
68510;BMP180;55512;50.102;19.958;2023-02-13T07:36:04;100548.40;;;3.40
68510;BMP180;55512;50.102;19.958;2023-02-13T07:38:31;100538.80;;;3.40
68510;BMP180;55512;50.102;19.958;2023-02-13T07:41:02;100542.00;;;3.44
68510;BMP180;55512;50.102;19.958;2023-02-13T07:43:28;100547.60;;;3.50
68510;BMP180;55512;50.102;19.958;2023-02-13T07:46:00;100548.20;;;3.60
68510;BMP180;55512;50.102;19.958;2023-02-13T07:48:27;100548.40;;;3.60
68510;BMP180;55512;50.102;19.958;2023-02-13T07:50:59;100551.80;;;3.70
68510;BMP180;55512;50.102;19.958;2023-02-13T07:53:24;100548.40;;;3.70
68510;BMP180;55512;50.102;19.958;2023-02-13T07:55:50;100546.40;;;3.70
68510;BMP180;55512;50.102;19.958;2023-02-13T07:58:15;100544.40;;;3.80
68510;BMP180;55512;50.102;19.958;2023-02-13T08:00:41;100551.40;;;3.86
68510;BMP180;55512;50.102;19.958;2023-02-13T08:03:06;100536.40;;;3.90
68510;BMP180;55512;50.102;19.958;2023-02-13T08:05:32;100536.80;;;3.98
68510;BMP180;55512;50.102;19.958;2023-02-13T08:07:58;100537.20;;;4.10
68510;BMP180;55512;50.102;19.958;2023-02-13T08:10:24;100544.60;;;4.10
68510;BMP180;55512;50.102;19.958;2023-02-13T08:13:09;100532.20;;;4.16
68510;BMP180;55512;50.102;19.958;2023-02-13T08:15:35;100542.80;;;4.20
68510;BMP180;55512;50.102;19.958;2023-02-13T08:18:01;100539.40;;;4.20
68510;BMP180;55512;50.102;19.958;2023-02-13T08:20:26;100536.40;;;4.20
68510;BMP180;55512;50.102;19.958;2023-02-13T08:22:53;100539.40;;;4.20
68510;BMP180;55512;50.102;19.958;2023-02-13T08:25:19;100543.60;;;4.20
68510;BMP180;55512;50.102;19.958;2023-02-13T08:27:45;100543.60;;;4.28
68510;BMP180;55512;50.102;19.958;2023-02-13T08:30:12;100542.20;;;4.30
68510;BMP180;55512;50.102;19.958;2023-02-13T08:32:39;100540.60;;;4.30
68510;BMP180;55512;50.102;19.958;2023-02-13T08:35:05;100545.80;;;4.40
68510;BMP180;55512;50.102;19.958;2023-02-13T08:37:30;100552.60;;;4.40
68510;BMP180;55512;50.102;19.958;2023-02-13T08:39:56;100548.00;;;4.40
68510;BMP180;55512;50.102;19.958;2023-02-13T08:42:21;100545.20;;;4.40
68510;BMP180;55512;50.102;19.958;2023-02-13T08:44:47;100547.20;;;4.42
68510;BMP180;55512;50.102;19.958;2023-02-13T08:47:12;100547.60;;;4.48
68510;BMP180;55512;50.102;19.958;2023-02-13T08:49:38;100543.60;;;4.50
68510;BMP180;55512;50.102;19.958;2023-02-13T08:52:03;100542.20;;;4.50
68510;BMP180;55512;50.102;19.958;2023-02-13T08:54:30;100545.60;;;4.52
68510;BMP180;55512;50.102;19.958;2023-02-13T08:56:56;100543.40;;;4.50
68510;BMP180;55512;50.102;19.958;2023-02-13T08:59:22;100542.40;;;4.52
68510;BMP180;55512;50.102;19.958;2023-02-13T09:01:47;100538.80;;;4.60
68510;BMP180;55512;50.102;19.958;2023-02-13T09:04:13;100539.80;;;4.68
68510;BMP180;55512;50.102;19.958;2023-02-13T09:06:43;100533.00;;;4.70
68510;BMP180;55512;50.102;19.958;2023-02-13T09:09:09;100528.20;;;4.78
68510;BMP180;55512;50.102;19.958;2023-02-13T09:11:35;100531.60;;;4.80
68510;BMP180;55512;50.102;19.958;2023-02-13T09:14:01;100540.60;;;4.80
68510;BMP180;55512;50.102;19.958;2023-02-13T09:16:27;100535.60;;;4.90
68510;BMP180;55512;50.102;19.958;2023-02-13T09:18:52;100535.60;;;4.94
68510;BMP180;55512;50.102;19.958;2023-02-13T09:21:20;100539.80;;;4.98
68510;BMP180;55512;50.102;19.958;2023-02-13T09:23:48;100537.00;;;5.00
68510;BMP180;55512;50.102;19.958;2023-02-13T09:26:17;100532.00;;;5.00
68510;BMP180;55512;50.102;19.958;2023-02-13T09:28:42;100539.80;;;5.04
68510;BMP180;55512;50.102;19.958;2023-02-13T09:31:11;100540.20;;;5.10
68510;BMP180;55512;50.102;19.958;2023-02-13T09:33:39;100539.00;;;5.20
68510;BMP180;55512;50.102;19.958;2023-02-13T09:36:12;100536.40;;;5.20
68510;BMP180;55512;50.102;19.958;2023-02-13T09:38:40;100534.60;;;5.22
68510;BMP180;55512;50.102;19.958;2023-02-13T09:44:02;100543.60;;;5.20
68510;BMP180;55512;50.102;19.958;2023-02-13T09:46:36;100540.60;;;5.30
68510;BMP180;55512;50.102;19.958;2023-02-13T09:49:11;100539.60;;;5.30
68510;BMP180;55512;50.102;19.958;2023-02-13T09:51:40;100537.20;;;5.40
68510;BMP180;55512;50.102;19.958;2023-02-13T09:54:10;100548.40;;;5.40
68510;BMP180;55512;50.102;19.958;2023-02-13T09:57:02;100552.80;;;5.50
68510;BMP180;55512;50.102;19.958;2023-02-13T10:10:59;100536.60;;;5.80
68510;BMP180;55512;50.102;19.958;2023-02-13T10:21:43;100519.20;;;5.80
68510;BMP180;55512;50.102;19.958;2023-02-13T10:26:56;100514.20;;;5.80
68510;BMP180;55512;50.102;19.958;2023-02-13T10:29:50;100505.40;;;5.80
68510;BMP180;55512;50.102;19.958;2023-02-13T10:33:05;100506.20;;;5.90
68510;BMP180;55512;50.102;19.958;2023-02-13T10:38:31;100476.40;;;6.16
68510;BMP180;55512;50.102;19.958;2023-02-13T10:47:02;100485.60;;;6.30
68510;BMP180;55512;50.102;19.958;2023-02-13T10:52:45;100484.80;;;6.30
68510;BMP180;55512;50.102;19.958;2023-02-13T10:55:25;100477.40;;;6.30
68510;BMP180;55512;50.102;19.958;2023-02-13T11:03:27;100468.00;;;6.36
68510;BMP180;55512;50.102;19.958;2023-02-13T11:05:54;100471.20;;;6.40
68510;BMP180;55512;50.102;19.958;2023-02-13T11:08:25;100464.40;;;6.40
68510;BMP180;55512;50.102;19.958;2023-02-13T11:10:52;100472.40;;;6.50
68510;BMP180;55512;50.102;19.958;2023-02-13T11:13:26;100472.80;;;6.50
68510;BMP180;55512;50.102;19.958;2023-02-13T11:16:03;100471.80;;;6.50
68510;BMP180;55512;50.102;19.958;2023-02-13T11:18:33;100466.80;;;6.44
68510;BMP180;55512;50.102;19.958;2023-02-13T11:21:09;100464.40;;;6.44
68510;BMP180;55512;50.102;19.958;2023-02-13T11:23:50;100466.40;;;6.50
68510;BMP180;55512;50.102;19.958;2023-02-13T11:26:38;100472.40;;;6.50
68510;BMP180;55512;50.102;19.958;2023-02-13T11:29:18;100468.80;;;6.40
68510;BMP180;55512;50.102;19.958;2023-02-13T11:32:05;100475.00;;;6.40
68510;BMP180;55512;50.102;19.958;2023-02-13T11:34:32;100478.40;;;6.32
68510;BMP180;55512;50.102;19.958;2023-02-13T11:39:44;100479.80;;;6.20
68510;BMP180;55512;50.102;19.958;2023-02-13T11:42:16;100475.40;;;6.20
68510;BMP180;55512;50.102;19.958;2023-02-13T11:44:48;100480.60;;;6.16
68510;BMP180;55512;50.102;19.958;2023-02-13T11:47:14;100476.60;;;6.10
68510;BMP180;55512;50.102;19.958;2023-02-13T11:49:45;100478.00;;;6.20
68510;BMP180;55512;50.102;19.958;2023-02-13T11:52:27;100475.40;;;6.20
68510;BMP180;55512;50.102;19.958;2023-02-13T11:54:57;100477.40;;;6.10
68510;BMP180;55512;50.102;19.958;2023-02-13T11:57:34;100472.00;;;6.10
68510;BMP180;55512;50.102;19.958;2023-02-13T12:02:49;100469.00;;;6.10
68510;BMP180;55512;50.102;19.958;2023-02-13T12:07:44;100458.60;;;6.10
68510;BMP180;55512;50.102;19.958;2023-02-13T12:12:56;100453.80;;;6.10
68510;BMP180;55512;50.102;19.958;2023-02-13T12:15:27;100446.80;;;6.10
68510;BMP180;55512;50.102;19.958;2023-02-13T12:18:04;100441.40;;;6.10
68510;BMP180;55512;50.102;19.958;2023-02-13T12:21:09;100437.60;;;6.10
68510;BMP180;55512;50.102;19.958;2023-02-13T12:24:02;100433.00;;;6.00
68510;BMP180;55512;50.102;19.958;2023-02-13T12:26:47;100437.40;;;6.00
68510;BMP180;55512;50.102;19.958;2023-02-13T12:38:03;100427.40;;;6.10
68510;BMP180;55512;50.102;19.958;2023-02-13T12:41:29;100429.80;;;6.20
68510;BMP180;55512;50.102;19.958;2023-02-13T12:52:19;100414.00;;;6.10
68510;BMP180;55512;50.102;19.958;2023-02-13T12:55:27;100419.20;;;6.10
68510;BMP180;55512;50.102;19.958;2023-02-13T13:00:51;100417.40;;;6.06
68510;BMP180;55512;50.102;19.958;2023-02-13T13:03:38;100424.80;;;6.10
68510;BMP180;55512;50.102;19.958;2023-02-13T13:15:12;100422.80;;;6.00
68510;BMP180;55512;50.102;19.958;2023-02-13T13:18:03;100426.40;;;5.90
68510;BMP180;55512;50.102;19.958;2023-02-13T13:24:17;100417.80;;;5.90
68510;BMP180;55512;50.102;19.958;2023-02-13T13:26:50;100420.20;;;5.90
68510;BMP180;55512;50.102;19.958;2023-02-13T13:29:28;100418.60;;;5.92
68510;BMP180;55512;50.102;19.958;2023-02-13T13:32:07;100408.20;;;5.92
68510;BMP180;55512;50.102;19.958;2023-02-13T13:34:38;100410.00;;;5.90
68510;BMP180;55512;50.102;19.958;2023-02-13T13:37:45;100417.80;;;5.82
68510;BMP180;55512;50.102;19.958;2023-02-13T13:40:45;100418.20;;;5.70
68510;BMP180;55512;50.102;19.958;2023-02-13T13:43:32;100413.60;;;5.70
68510;BMP180;55512;50.102;19.958;2023-02-13T13:51:30;100412.00;;;5.80
68510;BMP180;55512;50.102;19.958;2023-02-13T14:07:56;100393.80;;;5.80
68510;BMP180;55512;50.102;19.958;2023-02-13T14:26:24;100373.40;;;5.90
68510;BMP180;55512;50.102;19.958;2023-02-13T14:31:25;100377.40;;;5.90
68510;BMP180;55512;50.102;19.958;2023-02-13T14:36:45;100367.00;;;5.90
68510;BMP180;55512;50.102;19.958;2023-02-13T14:44:30;100349.20;;;5.80
68510;BMP180;55512;50.102;19.958;2023-02-13T14:47:02;100344.20;;;5.86
68510;BMP180;55512;50.102;19.958;2023-02-13T14:49:36;100342.20;;;5.80
68510;BMP180;55512;50.102;19.958;2023-02-13T14:52:06;100335.60;;;5.80
68510;BMP180;55512;50.102;19.958;2023-02-13T14:54:48;100335.40;;;5.80
68510;BMP180;55512;50.102;19.958;2023-02-13T14:57:20;100337.60;;;5.80
68510;BMP180;55512;50.102;19.958;2023-02-13T14:59:53;100343.60;;;5.80
68510;BMP180;55512;50.102;19.958;2023-02-13T15:02:30;100341.00;;;5.70
68510;BMP180;55512;50.102;19.958;2023-02-13T15:05:06;100345.40;;;5.70
68510;BMP180;55512;50.102;19.958;2023-02-13T15:07:36;100333.80;;;5.70
68510;BMP180;55512;50.102;19.958;2023-02-13T15:10:40;100323.40;;;5.70
68510;BMP180;55512;50.102;19.958;2023-02-13T15:13:21;100322.40;;;5.68
68510;BMP180;55512;50.102;19.958;2023-02-13T15:18:40;100316.40;;;5.60
68510;BMP180;55512;50.102;19.958;2023-02-13T15:21:15;100320.60;;;5.60
68510;BMP180;55512;50.102;19.958;2023-02-13T15:23:41;100318.00;;;5.60
68510;BMP180;55512;50.102;19.958;2023-02-13T15:26:18;100323.40;;;5.58
68510;BMP180;55512;50.102;19.958;2023-02-13T15:28:59;100336.80;;;5.50
68510;BMP180;55512;50.102;19.958;2023-02-13T15:31:31;100336.00;;;5.50
68510;BMP180;55512;50.102;19.958;2023-02-13T15:34:01;100341.60;;;5.42
68510;BMP180;55512;50.102;19.958;2023-02-13T15:36:38;100343.20;;;5.40
68510;BMP180;55512;50.102;19.958;2023-02-13T15:39:05;100341.20;;;5.40
68510;BMP180;55512;50.102;19.958;2023-02-13T15:41:39;100336.40;;;5.38
68510;BMP180;55512;50.102;19.958;2023-02-13T15:44:06;100343.20;;;5.30
68510;BMP180;55512;50.102;19.958;2023-02-13T15:46:34;100343.00;;;5.30
68510;BMP180;55512;50.102;19.958;2023-02-13T15:49:08;100339.80;;;5.30
68510;BMP180;55512;50.102;19.958;2023-02-13T15:51:37;100345.00;;;5.24
68510;BMP180;55512;50.102;19.958;2023-02-13T15:54:18;100348.20;;;5.20
68510;BMP180;55512;50.102;19.958;2023-02-13T15:56:45;100353.60;;;5.12
68510;BMP180;55512;50.102;19.958;2023-02-13T15:59:12;100347.40;;;5.10
68510;BMP180;55512;50.102;19.958;2023-02-13T16:01:40;100344.00;;;5.10
68510;BMP180;55512;50.102;19.958;2023-02-13T16:04:12;100343.80;;;5.10
68510;BMP180;55512;50.102;19.958;2023-02-13T16:06:42;100338.40;;;5.10
68510;BMP180;55512;50.102;19.958;2023-02-13T16:09:23;100348.60;;;5.00
68510;BMP180;55512;50.102;19.958;2023-02-13T16:12:16;100357.20;;;5.00
68510;BMP180;55512;50.102;19.958;2023-02-13T16:14:55;100350.00;;;5.00
68510;BMP180;55512;50.102;19.958;2023-02-13T16:17:31;100357.60;;;5.00
68510;BMP180;55512;50.102;19.958;2023-02-13T16:22:44;100357.20;;;5.00
68510;BMP180;55512;50.102;19.958;2023-02-13T16:28:22;100358.60;;;5.02
68510;BMP180;55512;50.102;19.958;2023-02-13T16:31:01;100358.20;;;5.00
68510;BMP180;55512;50.102;19.958;2023-02-13T16:33:29;100365.00;;;5.00
68510;BMP180;55512;50.102;19.958;2023-02-13T16:36:44;100367.60;;;5.00
68510;BMP180;55512;50.102;19.958;2023-02-13T16:38:49;100366.00;;;4.90
68510;BMP180;55512;50.102;19.958;2023-02-13T16:46:51;100385.40;;;4.90
68510;BMP180;55512;50.102;19.958;2023-02-13T16:49:21;100394.40;;;4.80
68510;BMP180;55512;50.102;19.958;2023-02-13T16:51:56;100384.60;;;4.80
68510;BMP180;55512;50.102;19.958;2023-02-13T16:54:38;100363.20;;;4.80
68510;BMP180;55512;50.102;19.958;2023-02-13T16:57:18;100356.60;;;4.70
68510;BMP180;55512;50.102;19.958;2023-02-13T17:00:00;100346.60;;;4.70
68510;BMP180;55512;50.102;19.958;2023-02-13T17:02:35;100335.20;;;4.60
68510;BMP180;55512;50.102;19.958;2023-02-13T17:07:43;100335.20;;;4.60
68510;BMP180;55512;50.102;19.958;2023-02-13T17:10:25;100341.40;;;4.60
68510;BMP180;55512;50.102;19.958;2023-02-13T17:12:54;100339.20;;;4.60
68510;BMP180;55512;50.102;19.958;2023-02-13T17:15:26;100334.80;;;4.60
68510;BMP180;55512;50.102;19.958;2023-02-13T17:17:52;100321.20;;;4.50
68510;BMP180;55512;50.102;19.958;2023-02-13T17:20:33;100310.60;;;4.50
68510;BMP180;55512;50.102;19.958;2023-02-13T17:23:22;100320.00;;;4.40